Time;durP1;ratioP1;P1;durP2;ratioP2;P2;SDS_P1;SDS_P2;PMS_P1;PMS_P2;Temp;Humidity;BMP_temperature;BMP_pressure;BME280_temperature;BME280_humidity;BME280_pressure;Samples;Min_cycle;Max_cycle;Signal;HPM_P1;HPM_P2
2023/04/09 00:00:20;;;;;;;24.45;11.05;;;2.30;99.90;;;;;;5042599;28;25099;-70
2023/04/09 00:02:47;;;;;;;29.27;11.82;;;2.30;99.90;;;;;;5042535;28;25142;-70
2023/04/09 00:05:15;;;;;;;26.75;10.90;;;2.20;99.90;;;;;;5024825;28;25115;-70
2023/04/09 00:07:42;;;;;;;27.83;12.05;;;2.10;99.90;;;;;;5024610;28;25050;-70
2023/04/09 00:10:10;;;;;;;37.42;15.35;;;2.00;99.90;;;;;;5020853;28;25076;-70
2023/04/09 00:12:37;;;;;;;31.70;12.90;;;1.90;99.90;;;;;;5021448;28;25074;-70
2023/04/09 00:15:05;;;;;;;32.70;13.18;;;1.90;99.90;;;;;;5039538;28;25108;-70
2023/04/09 00:17:33;;;;;;;38.53;15.18;;;1.90;99.90;;;;;;5039152;28;25072;-70
2023/04/09 00:20:00;;;;;;;33.78;14.68;;;1.80;99.90;;;;;;5021389;28;25076;-70
2023/04/09 00:22:28;;;;;;;36.28;15.15;;;1.80;99.90;;;;;;5036942;28;25073;-70
2023/04/09 00:24:56;;;;;;;36.38;15.15;;;1.70;99.90;;;;;;5038796;28;25067;-69
2023/04/09 00:27:23;;;;;;;36.28;14.52;;;1.60;99.90;;;;;;5039482;28;25117;-70
2023/04/09 00:29:55;;;;;;;28.30;12.13;;;1.60;99.90;;;;;;5021216;28;25079;-70
2023/04/09 00:32:22;;;;;;;32.08;13.38;;;1.50;99.90;;;;;;5038763;28;25056;-70
2023/04/09 00:34:50;;;;;;;28.88;13.55;;;1.40;99.90;;;;;;5038608;28;25109;-70
2023/04/09 00:37:17;;;;;;;35.10;14.20;;;1.40;99.90;;;;;;5039307;28;25074;-70
2023/04/09 00:39:45;;;;;;;33.85;13.80;;;1.40;99.90;;;;;;5038572;28;25059;-70
2023/04/09 00:42:13;;;;;;;39.20;14.90;;;1.30;99.90;;;;;;5039103;28;25078;-70
2023/04/09 00:44:40;;;;;;;31.73;14.95;;;1.30;99.90;;;;;;5020949;28;25070;-70
2023/04/09 00:47:08;;;;;;;34.92;14.48;;;1.20;99.90;;;;;;5020964;28;25073;-70
2023/04/09 00:49:35;;;;;;;35.90;13.73;;;1.20;99.90;;;;;;5038407;28;25123;-69
2023/04/09 00:52:02;;;;;;;32.92;14.10;;;1.20;99.90;;;;;;5020496;28;25080;-70
2023/04/09 00:54:30;;;;;;;31.65;13.73;;;1.20;99.90;;;;;;5038642;28;25098;-70
2023/04/09 00:56:58;;;;;;;35.08;16.13;;;1.10;99.90;;;;;;5038414;28;25079;-69
2023/04/09 00:59:26;;;;;;;32.65;13.80;;;1.10;99.90;;;;;;5038741;28;25113;-70
2023/04/09 01:01:53;;;;;;;32.92;12.32;;;1.10;99.90;;;;;;5038191;28;25105;-70
2023/04/09 01:04:21;;;;;;;32.70;13.07;;;1.10;99.90;;;;;;5038713;28;25157;-70
2023/04/09 01:07:13;;;;;;;26.23;11.80;;;1.10;99.90;;;;;;5038611;28;25061;-70
2023/04/09 01:10:04;;;;;;;29.75;12.73;;;1.00;99.90;;;;;;5032739;28;25264;-70
2023/04/09 01:12:48;;;;;;;29.75;12.43;;;1.00;99.90;;;;;;5036876;28;25060;-70
2023/04/09 01:15:29;;;;;;;108.47;15.82;;;1.00;99.90;;;;;;5038536;28;25131;-70
2023/04/09 01:18:25;;;;;;;70.15;17.20;;;1.00;99.90;;;;;;5037823;28;25057;-70
2023/04/09 01:21:01;;;;;;;48.60;15.23;;;1.00;99.90;;;;;;5037621;28;25070;-70
2023/04/09 01:23:46;;;;;;;;;;;1.00;99.90;;;;;;5038643;28;25091;-70
2023/04/09 01:26:38;;;;;;;52.35;17.00;;;1.10;99.90;;;;;;5037837;28;24064;-70
2023/04/09 01:29:06;;;;;;;45.97;17.35;;;1.20;99.90;;;;;;5037493;28;25093;-70
2023/04/09 01:31:38;;;;;;;44.25;16.98;;;1.20;99.90;;;;;;5038063;28;25120;-69
2023/04/09 01:34:07;;;;;;;46.40;18.55;;;1.30;99.90;;;;;;5037797;28;25108;-70
2023/04/09 01:36:37;;;;;;;46.38;17.60;;;1.40;99.90;;;;;;5038160;28;25081;-70
2023/04/09 01:39:05;;;;;;;64.55;24.20;;;1.50;99.90;;;;;;5019737;28;25083;-70
2023/04/09 01:41:34;;;;;;;46.45;17.65;;;1.60;99.90;;;;;;5037418;28;25049;-70
2023/04/09 01:44:03;;;;;;;52.10;18.08;;;1.60;99.90;;;;;;5019573;28;25104;-70
2023/04/09 01:46:31;;;;;;;44.63;17.63;;;1.70;99.90;;;;;;5037435;28;25073;-69
2023/04/09 01:48:58;;;;;;;46.72;18.65;;;1.70;99.90;;;;;;5037167;28;25076;-70
2023/04/09 01:51:26;;;;;;;42.88;18.45;;;1.80;99.90;;;;;;5019517;28;25111;-70
2023/04/09 01:53:53;;;;;;;49.15;17.55;;;1.90;99.90;;;;;;5036984;28;25059;-69
2023/04/09 01:56:20;;;;;;;42.53;17.83;;;1.90;99.90;;;;;;5037823;28;25110;-70
2023/04/09 01:58:48;;;;;;;40.25;16.33;;;2.00;99.90;;;;;;5037036;28;25056;-70
2023/04/09 02:01:35;;;;;;;39.58;16.98;;;2.10;99.90;;;;;;5037019;28;25095;-70
2023/04/09 02:04:08;;;;;;;42.92;16.95;;;2.10;99.90;;;;;;5036860;28;25086;-70
2023/04/09 02:06:44;;;;;;;38.70;17.70;;;2.20;99.90;;;;;;5037116;28;25072;-69
2023/04/09 02:09:16;;;;;;;37.28;16.20;;;2.20;99.90;;;;;;5036692;28;25088;-70
2023/04/09 02:11:45;;;;;;;39.58;16.17;;;2.30;99.90;;;;;;5037362;28;25063;-70
2023/04/09 02:14:14;;;;;;;39.38;16.02;;;2.40;99.90;;;;;;5036749;28;25095;-70
2023/04/09 02:16:42;;;;;;;37.28;15.40;;;2.40;99.90;;;;;;5037328;28;25067;-70
2023/04/09 02:19:09;;;;;;;35.58;16.13;;;2.40;99.90;;;;;;5036555;28;25070;-70
2023/04/09 02:21:37;;;;;;;41.45;15.40;;;2.40;99.90;;;;;;5036864;28;25163;-69
2023/04/09 02:24:04;;;;;;;39.83;16.30;;;2.40;99.90;;;;;;5036812;28;25059;-70
2023/04/09 02:26:31;;;;;;;39.00;15.30;;;2.40;99.90;;;;;;5036641;28;25060;-70
2023/04/09 02:28:59;;;;;;;42.08;16.63;;;2.40;99.90;;;;;;5019016;28;25062;-70
2023/04/09 02:31:26;;;;;;;45.20;17.98;;;2.50;99.90;;;;;;5037015;28;25171;-70
2023/04/09 02:33:54;;;;;;;40.60;17.20;;;2.50;99.90;;;;;;5036138;28;25064;-70
2023/04/09 02:36:22;;;;;;;41.30;18.88;;;2.50;99.90;;;;;;5037032;28;25111;-70
2023/04/09 02:38:49;;;;;;;39.97;17.55;;;2.60;99.90;;;;;;5036809;28;25070;-70
2023/04/09 02:41:17;;;;;;;38.55;17.95;;;2.60;99.90;;;;;;5037112;28;25085;-70
2023/04/09 02:43:44;;;;;;;40.33;18.60;;;2.70;99.90;;;;;;5036901;28;25051;-70
2023/04/09 02:46:12;;;;;;;45.40;18.17;;;2.70;99.90;;;;;;5036922;28;25050;-70
2023/04/09 02:48:39;;;;;;;39.55;16.80;;;2.80;99.90;;;;;;5036318;28;25092;-70
2023/04/09 02:51:07;;;;;;;42.83;17.77;;;2.80;99.90;;;;;;5018723;28;25063;-70
2023/04/09 02:53:36;;;;;;;41.38;18.58;;;2.90;99.90;;;;;;5036028;28;25075;-71
2023/04/09 02:56:04;;;;;;;41.78;18.27;;;2.90;99.90;;;;;;5036796;28;25054;-70
2023/04/09 02:58:31;;;;;;;39.20;17.70;;;2.90;99.90;;;;;;5036390;28;25050;-70
2023/04/09 03:00:58;;;;;;;36.53;15.98;;;3.00;99.90;;;;;;5036929;28;25074;-70
2023/04/09 03:03:25;;;;;;;42.75;18.15;;;3.00;99.90;;;;;;5018619;28;25057;-70
2023/04/09 03:05:53;;;;;;;37.42;16.92;;;3.00;99.90;;;;;;5036175;28;25093;-70
2023/04/09 03:08:20;;;;;;;35.88;15.80;;;3.10;99.90;;;;;;5036060;28;25119;-70
2023/04/09 03:10:47;;;;;;;47.30;18.83;;;3.10;99.90;;;;;;5036252;28;25076;-70
2023/04/09 03:13:14;;;;;;;39.30;17.10;;;3.10;99.90;;;;;;5036007;28;25116;-70
2023/04/09 03:15:42;;;;;;;40.35;17.13;;;3.20;99.90;;;;;;5036102;28;25061;-70
2023/04/09 03:18:09;;;;;;;41.30;17.90;;;3.20;99.90;;;;;;5018563;28;25140;-70
2023/04/09 03:20:39;;;;;;;40.13;17.88;;;3.30;99.90;;;;;;5036026;28;25098;-70
2023/04/09 03:23:07;;;;;;;39.28;18.05;;;3.30;99.90;;;;;;5018447;28;25073;-70
2023/04/09 03:25:34;;;;;;;41.65;18.20;;;3.30;99.90;;;;;;5035930;28;25055;-70
2023/04/09 03:28:02;;;;;;;39.50;17.65;;;3.30;99.90;;;;;;5036503;28;25067;-70
2023/04/09 03:30:29;;;;;;;37.63;17.05;;;3.40;99.90;;;;;;5036415;28;25079;-70
2023/04/09 03:32:58;;;;;;;37.95;17.63;;;3.40;99.90;;;;;;5035940;28;25060;-70
2023/04/09 03:35:26;;;;;;;35.60;15.82;;;3.40;99.90;;;;;;5035967;28;25091;-70
2023/04/09 03:37:53;;;;;;;37.97;17.42;;;3.50;99.90;;;;;;5036408;28;25123;-70
2023/04/09 03:40:20;;;;;;;37.75;17.67;;;3.50;99.90;;;;;;5036368;28;25116;-70
2023/04/09 03:42:47;;;;;;;43.88;19.13;;;3.50;99.90;;;;;;5018256;28;25165;-70
2023/04/09 03:45:15;;;;;;;48.83;18.98;;;3.50;99.90;;;;;;5038841;28;25064;-70
2023/04/09 03:47:42;;;;;;;42.75;18.85;;;3.50;99.90;;;;;;5021969;28;25067;-70
2023/04/09 03:50:09;;;;;;;40.08;18.38;;;3.50;99.90;;;;;;5037717;28;25100;-70
2023/04/09 03:52:37;;;;;;;40.78;19.83;;;3.60;99.90;;;;;;5019659;28;25052;-70
2023/04/09 03:55:05;;;;;;;47.72;19.83;;;3.60;99.90;;;;;;5019568;28;25075;-70
2023/04/09 03:57:32;;;;;;;44.55;21.08;;;3.60;99.90;;;;;;5020217;28;25092;-70
2023/04/09 04:00:00;;;;;;;50.53;21.17;;;3.70;99.90;;;;;;5001978;28;25058;-70
2023/04/09 04:02:30;;;;;;;52.40;23.27;;;3.70;99.90;;;;;;5002057;28;25076;-70
2023/04/09 04:04:58;;;;;;;63.08;26.98;;;3.70;99.90;;;;;;5019372;28;25054;-70
2023/04/09 04:07:26;;;;;;;58.40;25.42;;;3.70;99.90;;;;;;5002164;28;25061;-70
2023/04/09 04:09:53;;;;;;;71.30;26.88;;;3.80;99.90;;;;;;5019176;28;25091;-70
2023/04/09 04:12:20;;;;;;;64.32;27.90;;;3.80;99.90;;;;;;5019842;28;25120;-70
2023/04/09 04:14:48;;;;;;;68.63;28.45;;;3.90;99.90;;;;;;5001774;28;25124;-70
2023/04/09 04:17:15;;;;;;;65.28;27.13;;;3.90;99.90;;;;;;5001969;28;25080;-70
2023/04/09 04:19:42;;;;;;;75.70;27.13;;;3.90;99.90;;;;;;5001725;28;25159;-70
2023/04/09 04:22:10;;;;;;;59.78;26.55;;;3.90;99.90;;;;;;5019701;28;25129;-70
2023/04/09 04:24:38;;;;;;;60.72;25.77;;;3.90;99.90;;;;;;5019121;28;25053;-70
2023/04/09 04:27:05;;;;;;;62.10;26.10;;;3.90;99.90;;;;;;5018546;28;25059;-70
2023/04/09 04:29:33;;;;;;;63.78;23.83;;;3.90;99.90;;;;;;5018991;28;25081;-70
2023/04/09 04:32:00;;;;;;;68.75;26.90;;;3.90;99.90;;;;;;5019535;28;25149;-70
2023/04/09 04:34:27;;;;;;;57.33;25.40;;;3.90;99.90;;;;;;5001421;28;25113;-70
2023/04/09 04:36:54;;;;;;;73.95;26.90;;;3.90;99.90;;;;;;5001435;28;25063;-70
2023/04/09 04:39:22;;;;;;;64.25;26.30;;;3.90;99.90;;;;;;5018610;28;25061;-70
2023/04/09 04:41:49;;;;;;;72.38;25.48;;;4.00;99.90;;;;;;5018775;28;25074;-70
2023/04/09 04:44:16;;;;;;;69.07;27.08;;;4.00;99.90;;;;;;5018595;28;25055;-70
2023/04/09 04:46:43;;;;;;;83.35;27.13;;;4.00;99.90;;;;;;5018686;28;25071;-70
2023/04/09 04:49:11;;;;;;;66.85;26.92;;;4.00;99.90;;;;;;5018686;28;25127;-70
2023/04/09 04:51:38;;;;;;;127.20;26.70;;;4.00;99.90;;;;;;5014849;28;25129;-70
2023/04/09 04:54:06;;;;;;;75.80;26.30;;;4.00;99.90;;;;;;5038559;28;25065;-70
2023/04/09 04:56:33;;;;;;;72.30;25.83;;;4.00;99.90;;;;;;5020237;28;25083;-70
2023/04/09 04:59:00;;;;;;;89.18;27.23;;;4.00;99.90;;;;;;5038226;28;25080;-70
2023/04/09 05:01:27;;;;;;;69.88;24.98;;;3.90;99.90;;;;;;5037280;28;25086;-70
2023/04/09 05:03:54;;;;;;;75.32;25.73;;;4.00;99.90;;;;;;5038144;28;25076;-70
2023/04/09 05:06:22;;;;;;;61.60;25.55;;;4.00;99.90;;;;;;5019867;28;25156;-70
2023/04/09 05:08:49;;;;;;;64.10;26.00;;;4.00;99.90;;;;;;5020397;28;25050;-70
2023/04/09 05:11:16;;;;;;;85.22;28.60;;;4.00;99.90;;;;;;5038578;28;25101;-70
2023/04/09 05:13:44;;;;;;;84.75;26.13;;;4.00;99.90;;;;;;5020173;28;25075;-70
2023/04/09 05:16:19;;;;;;;76.18;26.10;;;4.00;99.90;;;;;;5038369;28;25115;-70
2023/04/09 05:18:46;;;;;;;89.80;28.17;;;4.10;99.90;;;;;;5037854;28;25070;-70
2023/04/09 05:21:14;;;;;;;78.63;27.73;;;4.10;99.90;;;;;;5037961;28;25064;-69
2023/04/09 05:23:42;;;;;;;102.97;28.20;;;4.10;99.90;;;;;;5038408;28;25059;-69
2023/04/09 05:26:09;;;;;;;82.43;28.02;;;4.10;99.90;;;;;;5037715;28;25074;-69
2023/04/09 05:28:37;;;;;;;65.75;26.30;;;4.20;99.90;;;;;;5020086;28;25104;-69
2023/04/09 05:31:06;;;;;;;87.40;24.58;;;4.20;99.90;;;;;;5038268;28;25070;-69
2023/04/09 05:33:37;;;;;;;94.68;23.70;;;4.20;99.90;;;;;;5037466;28;25105;-69
2023/04/09 05:36:05;;;;;;;122.55;26.95;;;4.30;99.90;;;;;;5037782;28;25084;-69
2023/04/09 05:38:33;;;;;;;67.85;23.52;;;4.30;99.90;;;;;;5019837;28;25096;-68
2023/04/09 05:41:00;;;;;;;133.35;26.50;;;4.30;99.90;;;;;;5037871;28;25070;-69
2023/04/09 05:43:27;;;;;;;96.60;24.73;;;4.30;99.90;;;;;;5037907;28;25075;-69
2023/04/09 05:45:55;;;;;;;102.32;25.00;;;4.30;99.90;;;;;;5037822;28;25093;-68
2023/04/09 05:48:22;;;;;;;74.88;26.70;;;4.40;99.90;;;;;;5037197;28;25140;-69
2023/04/09 05:50:54;;;;;;;119.68;26.38;;;4.50;99.90;;;;;;5037116;28;25131;-75
2023/04/09 05:53:21;;;;;;;129.48;25.35;;;4.50;99.90;;;;;;5037331;28;25072;-75
2023/04/09 05:55:49;;;;;;;186.63;27.42;;;4.50;99.90;;;;;;5037027;28;25068;-77
2023/04/09 05:58:20;;;;;;;194.55;28.33;;;4.50;99.90;;;;;;5037400;28;25073;-76
2023/04/09 06:00:50;;;;;;;88.95;23.42;;;4.50;99.90;;;;;;5019671;28;25074;-77
2023/04/09 06:03:17;;;;;;;204.27;26.08;;;4.60;99.90;;;;;;5036884;28;25132;-77
2023/04/09 06:05:45;;;;;;;109.57;26.92;;;4.60;99.90;;;;;;5037595;28;25064;-78
2023/04/09 06:08:13;;;;;;;163.43;27.23;;;4.60;99.90;;;;;;5036156;28;25126;-77
2023/04/09 06:10:40;;;;;;;119.30;26.60;;;4.60;99.90;;;;;;5036864;28;25087;-77
2023/04/09 06:13:09;;;;;;;107.18;28.67;;;4.60;99.90;;;;;;5019229;28;25122;-77
2023/04/09 06:15:38;;;;;;;98.55;26.38;;;4.70;99.90;;;;;;5019698;28;25074;-77
2023/04/09 06:18:05;;;;;;;105.85;24.20;;;4.70;99.90;;;;;;5036659;28;25118;-76
2023/04/09 06:20:32;;;;;;;93.75;23.17;;;4.80;99.90;;;;;;5036698;28;25087;-81
2023/04/09 06:23:00;;;;;;;72.00;21.48;;;4.80;99.90;;;;;;5018981;28;25049;-71
2023/04/09 06:25:27;;;;;;;68.15;19.83;;;4.90;99.90;;;;;;5019089;28;25068;-71
2023/04/09 06:27:55;;;;;;;58.85;20.23;;;4.90;99.90;;;;;;5018936;28;25054;-71
2023/04/09 06:30:22;;;;;;;54.53;20.10;;;4.90;99.90;;;;;;5018909;28;25113;-71
2023/04/09 06:32:50;;;;;;;62.15;18.52;;;4.90;99.90;;;;;;5036462;28;25097;-71
2023/04/09 06:35:18;;;;;;;96.47;20.27;;;4.90;99.90;;;;;;5019222;28;25113;-72
2023/04/09 06:37:45;;;;;;;45.97;18.95;;;5.00;99.90;;;;;;5036492;28;25115;-72
2023/04/09 06:40:13;;;;;;;80.43;19.90;;;5.00;99.90;;;;;;5036446;28;25100;-71
2023/04/09 06:42:41;;;;;;;49.22;18.42;;;5.00;99.90;;;;;;5018938;28;25069;-71
2023/04/09 06:45:09;;;;;;;65.10;20.45;;;5.10;99.90;;;;;;5036307;28;25102;-72
2023/04/09 06:47:37;;;;;;;67.43;18.83;;;5.10;99.90;;;;;;5018824;28;25107;-72
2023/04/09 06:50:06;;;;;;;53.83;19.23;;;5.10;99.90;;;;;;5017828;28;25080;-71
2023/04/09 06:52:33;;;;;;;87.90;20.67;;;5.10;99.90;;;;;;4999147;28;25062;-71
2023/04/09 06:55:00;;;;;;;63.42;20.30;;;5.10;99.90;;;;;;5016412;28;25077;-71
2023/04/09 06:57:28;;;;;;;50.03;19.90;;;5.20;99.90;;;;;;5016943;28;25068;-72
2023/04/09 06:59:55;;;;;;;46.95;20.27;;;5.30;99.90;;;;;;5016428;28;25135;-72
2023/04/09 07:02:22;;;;;;;41.58;19.73;;;5.30;99.90;;;;;;5017049;28;25062;-71
2023/04/09 07:04:50;;;;;;;51.47;19.35;;;5.40;99.90;;;;;;5016983;28;25076;-71
2023/04/09 07:07:17;;;;;;;35.90;18.40;;;5.60;99.90;;;;;;5016602;28;25107;-72
2023/04/09 07:09:44;;;;;;;45.20;17.75;;;5.70;99.90;;;;;;5016291;28;25117;-71
2023/04/09 07:12:12;;;;;;;39.15;18.23;;;5.80;99.90;;;;;;5016372;28;25074;-72
2023/04/09 07:14:39;;;;;;;55.60;17.67;;;5.90;99.90;;;;;;5016218;28;25071;-72
2023/04/09 07:17:07;;;;;;;39.45;17.88;;;6.00;99.90;;;;;;5016710;28;25060;-72
2023/04/09 07:19:34;;;;;;;43.25;18.52;;;6.10;99.90;;;;;;5019261;28;25109;-73
2023/04/09 07:22:01;;;;;;;39.90;18.60;;;6.10;99.90;;;;;;5002819;28;25071;-72
2023/04/09 07:24:30;;;;;;;33.50;18.20;;;6.20;99.90;;;;;;5020297;28;25049;-72
2023/04/09 07:26:57;;;;;;;40.47;17.27;;;6.20;99.90;;;;;;5020714;28;25078;-72
2023/04/09 07:29:24;;;;;;;37.50;17.77;;;6.30;99.90;;;;;;5020658;28;25144;-72
2023/04/09 07:31:51;;;;;;;34.63;18.25;;;6.30;99.90;;;;;;5020313;28;25108;-74
2023/04/09 07:34:19;;;;;;;34.92;18.70;;;6.40;99.90;;;;;;5019931;28;25064;-72
2023/04/09 07:36:47;;;;;;;36.63;17.27;;;6.40;99.90;;;;;;5001623;28;25065;-75
2023/04/09 07:39:14;;;;;;;45.67;16.95;;;6.40;99.90;;;;;;5019888;28;25117;-72
2023/04/09 07:41:42;;;;;;;39.35;18.15;;;6.50;99.90;;;;;;5020035;28;25113;-72
2023/04/09 07:44:09;;;;;;;32.92;18.00;;;6.50;99.90;;;;;;5020414;28;25076;-73
2023/04/09 07:46:38;;;;;;;48.53;20.08;;;6.60;99.90;;;;;;5002444;28;25110;-72
2023/04/09 07:49:05;;;;;;;35.83;17.40;;;6.70;99.90;;;;;;5002372;28;25070;-72
2023/04/09 07:51:33;;;;;;;43.95;16.58;;;6.70;99.90;;;;;;5014705;28;25061;-73
2023/04/09 07:54:01;;;;;;;40.08;17.65;;;6.80;99.90;;;;;;5021689;28;25079;-73
2023/04/09 07:56:28;;;;;;;28.98;16.13;;;6.90;99.90;;;;;;5039917;28;25103;-72
2023/04/09 07:58:56;;;;;;;32.78;16.88;;;7.00;99.90;;;;;;5021639;28;25125;-73
2023/04/09 08:01:25;;;;;;;39.80;15.13;;;7.00;99.90;;;;;;5020289;28;25070;-73
2023/04/09 08:03:52;;;;;;;33.80;16.42;;;7.10;99.90;;;;;;5038439;28;25054;-73
2023/04/09 08:06:20;;;;;;;29.70;15.88;;;7.20;99.90;;;;;;5021641;28;25067;-72
2023/04/09 08:08:47;;;;;;;31.92;16.75;;;7.20;99.90;;;;;;5020837;28;25147;-73
2023/04/09 08:11:14;;;;;;;31.13;17.75;;;7.30;99.90;;;;;;5021830;28;25105;-72
2023/04/09 08:13:42;;;;;;;25.52;15.57;;;7.30;99.90;;;;;;5037675;28;25073;-72
2023/04/09 08:16:09;;;;;;;26.92;14.73;;;7.40;99.90;;;;;;5039750;28;25119;-72
2023/04/09 08:18:36;;;;;;;26.88;15.82;;;7.50;99.90;;;;;;5022127;28;25082;-72
2023/04/09 08:21:06;;;;;;;25.52;14.32;;;7.50;99.90;;;;;;5038876;28;25124;-72
2023/04/09 08:23:34;;;;;;;27.45;15.07;;;7.50;99.90;;;;;;5039329;28;25056;-72
2023/04/09 08:26:02;;;;;;;34.30;14.48;;;7.50;99.90;;;;;;5039483;28;25067;-73
2023/04/09 08:28:30;;;;;;;25.27;14.15;;;7.50;99.90;;;;;;5019781;28;25070;-72
2023/04/09 08:30:57;;;;;;;27.38;14.52;;;7.50;99.90;;;;;;5020295;28;25115;-72
2023/04/09 08:33:25;;;;;;;23.85;15.13;;;7.50;99.90;;;;;;5021086;28;25109;-71
2023/04/09 08:35:52;;;;;;;26.10;15.07;;;7.60;99.90;;;;;;5038798;28;25079;-73
2023/04/09 08:38:20;;;;;;;26.70;14.77;;;7.60;99.90;;;;;;5021162;28;25068;-71
2023/04/09 08:40:48;;;;;;;28.15;15.50;;;7.60;99.90;;;;;;5037698;28;25130;-72
2023/04/09 08:43:19;;;;;;;26.08;14.85;;;7.70;99.90;;;;;;5020950;28;25095;-71
2023/04/09 08:45:47;;;;;;;27.05;14.63;;;7.70;99.90;;;;;;5020923;28;25111;-71
2023/04/09 08:48:15;;;;;;;26.25;14.57;;;7.90;99.90;;;;;;5019578;28;25116;-71
2023/04/09 08:50:45;;;;;;;25.75;14.65;;;7.90;99.90;;;;;;5038869;28;25152;-72
2023/04/09 08:53:16;;;;;;;25.70;14.18;;;8.00;99.90;;;;;;5038220;28;25148;-72
2023/04/09 08:55:47;;;;;;;25.90;13.95;;;7.90;99.90;;;;;;5020720;28;25059;-72
2023/04/09 08:58:15;;;;;;;25.60;15.18;;;7.90;99.90;;;;;;5020662;28;25105;-72
2023/04/09 09:00:42;;;;;;;26.73;15.63;;;7.70;99.90;;;;;;5038910;28;25074;-72
2023/04/09 09:03:13;;;;;;;26.08;14.90;;;7.60;99.90;;;;;;5038175;28;25061;-71
2023/04/09 09:05:42;;;;;;;25.38;14.90;;;7.40;99.90;;;;;;5038217;28;25099;-71
2023/04/09 09:08:11;;;;;;;27.63;15.38;;;7.30;99.90;;;;;;5020433;28;25130;-71
2023/04/09 09:10:45;;;;;;;27.67;13.80;;;7.30;99.90;;;;;;5038595;28;25079;-71
2023/04/09 09:13:24;;;;;;;25.60;14.45;;;7.20;99.90;;;;;;5037934;28;25106;-71
2023/04/09 09:15:57;;;;;;;30.50;16.45;;;7.20;99.90;;;;;;5037714;28;25085;-71
2023/04/09 09:18:41;;;;;;;29.02;16.35;;;7.20;99.90;;;;;;5038426;28;25080;-71
2023/04/09 09:21:13;;;;;;;28.40;16.02;;;7.20;99.90;;;;;;5038032;28;25081;-71
2023/04/09 09:23:41;;;;;;;30.25;15.90;;;7.20;99.90;;;;;;5038207;28;25071;-71
2023/04/09 09:26:19;;;;;;;26.98;16.08;;;7.20;99.90;;;;;;5037756;28;25053;-73
2023/04/09 09:28:48;;;;;;;32.15;16.75;;;7.30;99.90;;;;;;5020055;28;25060;-72
2023/04/09 09:31:17;;;;;;;29.50;16.17;;;7.30;99.90;;;;;;5037147;28;25092;-72
2023/04/09 09:33:45;;;;;;;29.88;16.10;;;7.40;99.90;;;;;;5019963;28;25060;-73
2023/04/09 09:36:12;;;;;;;28.73;15.02;;;7.50;99.90;;;;;;5037197;28;25071;-74
2023/04/09 09:39:02;;;;;;;28.35;15.70;;;7.60;99.90;;;;;;5037367;28;25078;-73
2023/04/09 09:41:30;;;;;;;27.80;15.43;;;7.70;99.90;;;;;;5019536;28;25067;-73
2023/04/09 09:43:58;;;;;;;26.55;15.55;;;8.00;99.90;;;;;;5037256;28;25063;-73
2023/04/09 09:46:26;;;;;;;28.73;16.17;;;8.20;99.90;;;;;;5037608;28;25079;-74
2023/04/09 09:48:53;;;;;;;30.05;15.10;;;8.50;99.90;;;;;;5037245;28;25070;-74
2023/04/09 09:51:26;;;;;;;27.20;16.20;;;8.70;99.90;;;;;;5037548;28;25072;-73
2023/04/09 09:53:56;;;;;;;29.67;15.43;;;9.10;99.90;;;;;;5037082;28;25123;-73
2023/04/09 09:56:31;;;;;;;25.48;15.00;;;9.30;99.90;;;;;;5037201;28;25124;-73
2023/04/09 09:59:11;;;;;;;27.83;16.42;;;9.60;99.90;;;;;;5037004;28;25127;-73
2023/04/09 10:01:40;;;;;;;30.98;15.60;;;9.80;99.90;;;;;;5037777;28;25094;-73
2023/04/09 10:04:14;;;;;;;28.33;15.45;;;10.10;99.90;;;;;;5037028;28;25089;-73
2023/04/09 10:06:45;;;;;;;23.92;14.02;;;10.30;99.90;;;;;;5037464;28;25071;-72
2023/04/09 10:09:12;;;;;;;24.20;13.27;;;10.50;99.90;;;;;;5036862;28;25061;-71
2023/04/09 10:11:46;;;;;;;26.30;15.25;;;10.70;99.90;;;;;;5036971;28;25052;-72
2023/04/09 10:14:15;;;;;;;26.13;15.10;;;10.90;99.90;;;;;;5036688;28;25068;-72
2023/04/09 10:16:43;;;;;;;25.20;15.38;;;11.00;99.90;;;;;;5019270;28;25085;-72
2023/04/09 10:19:14;;;;;;;24.88;14.27;;;11.20;99.90;;;;;;5036753;28;25084;-71
2023/04/09 10:21:59;;;;;;;24.67;15.20;;;11.40;99.90;;;;;;5036928;28;25091;-71
2023/04/09 10:24:27;;;;;;;25.50;14.65;;;11.50;99.90;;;;;;5036585;28;25065;-71
2023/04/09 10:26:58;;;;;;;26.25;14.68;;;11.70;99.90;;;;;;5017219;28;25060;-72
2023/04/09 10:29:29;;;;;;;24.63;14.32;;;11.80;99.90;;;;;;5037137;28;25104;-71
2023/04/09 10:32:06;;;;;;;24.50;14.40;;;11.90;99.90;;;;;;5036699;28;25058;-71
2023/04/09 10:34:56;;;;;;;25.92;14.85;;;12.00;99.90;;;;;;5018803;28;25050;-72
2023/04/09 10:37:25;;;;;;;24.45;13.65;;;12.00;99.90;;;;;;5036564;28;25059;-71
2023/04/09 10:39:53;;;;;;;25.90;15.15;;;11.90;99.90;;;;;;5035557;28;25125;-71
2023/04/09 10:42:31;;;;;;;25.27;14.30;;;11.90;99.90;;;;;;5019128;28;25111;-71
2023/04/09 10:45:15;;;;;;;22.17;13.38;;;11.80;99.90;;;;;;5018739;28;25153;-71
2023/04/09 10:47:45;;;;;;;27.65;14.90;;;11.80;99.90;;;;;;5036332;28;25070;-72
2023/04/09 10:50:22;;;;;;;22.63;13.90;;;11.70;99.90;;;;;;5036505;28;25085;-71
2023/04/09 10:52:55;;;;;;;24.65;13.52;;;11.70;99.90;;;;;;5036422;28;25126;-72
2023/04/09 10:55:41;;;;;;;25.63;14.88;;;11.70;99.90;;;;;;5018950;28;25061;-74
2023/04/09 10:58:11;;;;;;;23.35;14.07;;;11.60;99.90;;;;;;5018694;28;25101;-73
2023/04/09 11:00:44;;;;;;;27.55;14.65;;;11.60;99.90;;;;;;5018637;28;25041;-74
2023/04/09 11:03:24;;;;;;;24.63;13.85;;;11.60;99.90;;;;;;5036730;28;25070;-70
2023/04/09 11:05:58;;;;;;;24.52;13.48;;;11.70;99.90;;;;;;5036713;28;25088;-73
2023/04/09 11:08:30;;;;;;;22.35;12.65;;;11.80;99.90;;;;;;5036827;28;25103;-73
2023/04/09 11:10:59;;;;;;;21.63;13.15;;;11.90;99.90;;;;;;5018940;28;25134;-73
2023/04/09 11:13:28;;;;;;;18.95;11.32;;;11.90;99.90;;;;;;5036605;28;25077;-73
2023/04/09 11:15:56;;;;;;;20.38;13.05;;;12.00;99.90;;;;;;5018752;28;25130;-71
2023/04/09 11:18:25;;;;;;;22.65;12.82;;;12.10;99.90;;;;;;5018566;28;25120;-71
2023/04/09 11:21:02;;;;;;;25.17;14.13;;;12.20;99.90;;;;;;5017821;28;25076;-71
2023/04/09 11:23:30;;;;;;;23.20;13.77;;;12.40;99.90;;;;;;5036410;28;25117;-71
2023/04/09 11:25:57;;;;;;;24.50;15.00;;;12.50;99.90;;;;;;5018490;28;25064;-71
2023/04/09 11:28:26;;;;;;;24.35;14.05;;;12.60;99.90;;;;;;5035995;28;25109;-71
2023/04/09 11:30:53;;;;;;;21.50;13.43;;;12.60;99.90;;;;;;5036001;28;25072;-71
2023/04/09 11:33:21;;;;;;;20.10;11.93;;;12.70;99.90;;;;;;5017747;28;25064;-71
2023/04/09 11:35:48;;;;;;;21.50;12.57;;;12.70;99.90;;;;;;5036674;28;25072;-71
2023/04/09 11:38:15;;;;;;;18.00;11.25;;;12.80;99.90;;;;;;5035919;28;25097;-71
2023/04/09 11:40:47;;;;;;;16.40;10.65;;;13.00;99.90;;;;;;5035928;28;25053;-71
2023/04/09 11:43:16;;;;;;;16.38;10.57;;;13.00;99.90;;;;;;5035985;28;25113;-71
2023/04/09 11:45:46;;;;;;;15.60;9.60;;;13.10;99.90;;;;;;5035959;28;25051;-71
2023/04/09 11:48:14;;;;;;;17.13;9.75;;;13.10;99.90;;;;;;5028085;28;25107;-71
2023/04/09 11:50:42;;;;;;;15.45;9.63;;;13.10;99.90;;;;;;5035497;28;25090;-71
2023/04/09 11:53:20;;;;;;;17.08;9.68;;;13.10;99.90;;;;;;5035718;28;25049;-71
2023/04/09 11:55:52;;;;;;;16.73;10.38;;;13.00;99.90;;;;;;5035922;28;25138;-71
2023/04/09 11:58:25;;;;;;;16.60;9.98;;;13.00;99.90;;;;;;5036038;28;25104;-71
2023/04/09 12:00:58;;;;;;;13.50;8.85;;;13.00;99.90;;;;;;5035748;28;25055;-71
2023/04/09 12:03:33;;;;;;;15.60;9.20;;;13.00;99.90;;;;;;5018170;28;25137;-71
2023/04/09 12:06:02;;;;;;;14.63;9.73;;;13.00;99.90;;;;;;5038316;28;25061;-71
2023/04/09 12:08:33;;;;;;;15.52;9.18;;;13.00;99.90;;;;;;5038536;28;25067;-71
2023/04/09 12:11:15;;;;;;;15.85;9.65;;;13.10;99.90;;;;;;5039276;28;25124;-71
2023/04/09 12:13:43;;;;;;;14.35;9.48;;;13.10;99.40;;;;;;5039113;28;25074;-71
2023/04/09 12:16:14;;;;;;;15.60;9.52;;;13.20;99.00;;;;;;5039699;28;25060;-71
2023/04/09 12:18:41;;;;;;;13.38;8.65;;;13.20;98.30;;;;;;5039101;28;25108;-71
2023/04/09 12:21:08;;;;;;;15.70;9.00;;;13.30;97.20;;;;;;5020767;28;25105;-71
2023/04/09 12:23:36;;;;;;;12.85;8.77;;;13.30;97.00;;;;;;5039412;28;25064;-71
2023/04/09 12:26:03;;;;;;;13.90;8.68;;;13.40;97.10;;;;;;5021303;28;25080;-71
2023/04/09 12:28:31;;;;;;;15.02;8.75;;;13.50;96.70;;;;;;5039459;28;25101;-71
2023/04/09 12:31:31;;;;;;;14.35;8.48;;;13.60;95.80;;;;;;5021639;28;25082;-71
2023/04/09 12:33:59;;;;;;;16.92;8.73;;;13.70;95.20;;;;;;5021118;28;25064;-71
2023/04/09 12:36:27;;;;;;;14.43;9.25;;;13.80;94.40;;;;;;5038808;28;25055;-71
2023/04/09 12:38:55;;;;;;;18.70;11.23;;;13.90;94.10;;;;;;5039179;28;25118;-71
2023/04/09 12:41:23;;;;;;;15.80;9.63;;;14.00;93.80;;;;;;5039194;28;25087;-71
2023/04/09 12:43:50;;;;;;;13.40;9.00;;;14.00;94.20;;;;;;5038956;28;25116;-71
2023/04/09 12:46:18;;;;;;;13.43;8.65;;;14.10;94.70;;;;;;5038784;28;25061;-71